Airfield :
LOGIN :

Register | Disclaimer

   EN    FR    IT 

 










Legend :    VFR   Marginal VFR   IFR   Intensive IFR   Very Intensive IFR
Visi :
Ceiling :
>= 8 km
>= 3000ft
5 to 8 km
1000 to 3000 ft
1500m to 5 km
500 to 1000 ft
800 to 1500m
200 to 500 ft
< 800m
< 200 ft
Symbols :   Thunderstorms  Fog  Heavy snow  Heavy precipitations  Wind > 20 kt
SIGMETs :     Misc.  Thunderstorms  Icing  Turbulence  Mountain Waves  Volcanic Ashes






- Airport Elevation : 55 ft
- IATA code : DSA


EGCN - Robin Hood Doncaster Sheffield

CURRENT METAR :
  • 231720Z 18008KT 9999 BKN036 12/06 Q1022

EXPIRED METARs :
  • 231650Z 19009KT 9999 BKN038 12/06 Q1022
  • 231620Z 19016KT 9999 BKN038 12/05 Q1022
  • 231550Z 20016KT 9999 BKN042 12/05 Q1022
  • 231520Z 20014KT 9999 BKN043 13/06 Q1022
  • 231450Z 20015KT 9999 BKN038 13/06 Q1022

TAF TAF EGCN
Valid from the 23 at 12:00 until the 24 at 12:00 UTC


231058Z 2312/2412 19010KT 9999 SCT045
PROB30
TEMPO 2404/2409 19015G25KT
PROB40
TEMPO 2409/2412 6000 -RADZ BKN014



MET'MAP, your aeronautical weather chart ! - Copyright ORBIFLY December 2007 - Disclaimer

ORBIFLY MET'MAP TEAM :

Programming & Development : Alexandra Zaïnal
Concept & original design : Baudouin d'Aumeries
Assistance for programming : Marc-Olivier Méhu
Technical & hardware support : Manuel Goepfert

Contact : metmap@orbifly.com




SOURCES & CREDITS :

   NOAA